createdAt,value
2018-12-16T00:01:49.322Z,67.50
2018-12-16T00:04:17.737Z,67.60
2018-12-16T00:06:46.256Z,67.80
2018-12-16T00:09:14.820Z,67.60
2018-12-16T00:11:43.358Z,67.70
2018-12-16T00:14:11.913Z,67.90
2018-12-16T00:16:40.392Z,68.00
2018-12-16T00:19:08.861Z,67.60
2018-12-16T00:21:37.302Z,67.40
2018-12-16T00:24:05.813Z,67.20
2018-12-16T00:26:45.567Z,67.40
2018-12-16T00:29:14.102Z,67.50
2018-12-16T00:31:42.568Z,67.60
2018-12-16T00:34:11.030Z,67.80
2018-12-16T00:36:39.590Z,67.90
2018-12-16T00:39:08.235Z,67.80
2018-12-16T00:41:36.684Z,67.80
2018-12-16T00:44:05.200Z,67.70
2018-12-16T00:46:33.719Z,68.00
2018-12-16T00:49:02.176Z,68.20
2018-12-16T00:51:30.712Z,68.40
2018-12-16T00:53:59.140Z,68.10
2018-12-16T00:56:27.598Z,68.20
2018-12-16T00:58:56.186Z,68.20
2018-12-16T01:01:24.740Z,68.30
2018-12-16T01:03:53.234Z,68.40
2018-12-16T01:06:21.917Z,68.40
2018-12-16T01:08:50.563Z,68.70
2018-12-16T01:11:19.891Z,68.60
2018-12-16T01:13:48.383Z,68.70
2018-12-16T01:16:16.852Z,68.70
2018-12-16T01:18:45.372Z,68.60
2018-12-16T01:21:13.840Z,68.60
2018-12-16T01:23:42.333Z,68.40
2018-12-16T01:26:10.858Z,68.50
2018-12-16T01:28:39.286Z,68.60
2018-12-16T01:31:07.783Z,68.50
2018-12-16T01:33:36.401Z,68.50
2018-12-16T01:36:04.944Z,68.60
2018-12-16T01:38:33.384Z,68.50
2018-12-16T01:41:01.955Z,68.50
2018-12-16T01:43:30.408Z,68.50
2018-12-16T01:45:58.918Z,68.50
2018-12-16T01:48:27.364Z,68.40
2018-12-16T01:50:55.847Z,68.20
2018-12-16T01:53:24.366Z,68.50
2018-12-16T01:55:52.857Z,68.60
2018-12-16T01:58:21.301Z,68.50
2018-12-16T02:00:49.816Z,68.50
2018-12-16T02:03:18.286Z,69.40
2018-12-16T02:05:46.811Z,69.00
2018-12-16T02:08:15.313Z,69.40
2018-12-16T02:10:43.831Z,69.70
2018-12-16T02:13:12.297Z,70.40
2018-12-16T02:15:40.850Z,71.40
2018-12-16T02:18:09.348Z,74.00
2018-12-16T02:20:37.774Z,76.40
2018-12-16T02:23:06.430Z,79.80
2018-12-16T02:25:34.864Z,87.20
2018-12-16T02:28:03.431Z,90.70
2018-12-16T02:30:31.928Z,92.00
2018-12-16T02:33:00.424Z,95.70
2018-12-16T02:35:29.336Z,96.80
2018-12-16T02:37:57.796Z,98.10
2018-12-16T02:40:26.236Z,99.60
2018-12-16T02:42:54.979Z,99.90
2018-12-16T02:45:23.479Z,99.90
2018-12-16T02:47:52.004Z,99.90
2018-12-16T02:50:20.456Z,99.90
2018-12-16T02:52:48.942Z,99.90
2018-12-16T02:55:17.457Z,99.90
2018-12-16T02:57:45.959Z,99.90
2018-12-16T03:00:14.564Z,99.90
2018-12-16T03:02:43.086Z,99.90
2018-12-16T03:05:11.573Z,99.90
2018-12-16T03:07:40.022Z,99.90
2018-12-16T03:10:08.765Z,99.90
2018-12-16T03:12:37.257Z,99.90
2018-12-16T03:15:06.291Z,99.90
2018-12-16T03:17:34.882Z,99.90
2018-12-16T03:20:03.799Z,99.90
2018-12-16T03:22:32.237Z,99.90
2018-12-16T03:25:00.745Z,99.00
2018-12-16T03:27:29.254Z,99.90
2018-12-16T03:29:57.822Z,99.90
2018-12-16T03:32:26.299Z,99.90
2018-12-16T03:34:54.885Z,99.90
2018-12-16T03:37:23.361Z,99.90
2018-12-16T03:39:51.841Z,99.90
2018-12-16T03:42:20.282Z,99.90
2018-12-16T03:44:48.843Z,99.90
2018-12-16T03:47:17.343Z,99.90
2018-12-16T03:49:45.820Z,99.90
2018-12-16T03:52:14.326Z,99.90
2018-12-16T03:54:42.768Z,99.90
2018-12-16T03:57:11.371Z,99.90
2018-12-16T03:59:39.903Z,99.90
2018-12-16T04:02:08.371Z,99.90
2018-12-16T04:04:36.902Z,99.90
2018-12-16T04:07:05.549Z,99.90
2018-12-16T04:09:34.040Z,99.90
2018-12-16T04:12:03.294Z,99.90
2018-12-16T04:14:31.780Z,99.90
2018-12-16T04:17:00.262Z,99.90
2018-12-16T04:19:29.190Z,99.90
2018-12-16T04:21:57.681Z,99.90
2018-12-16T04:24:26.110Z,99.90
2018-12-16T04:26:54.599Z,99.90
2018-12-16T04:29:23.079Z,99.90
2018-12-16T04:31:51.538Z,99.90
2018-12-16T04:34:20.058Z,99.90
2018-12-16T04:36:48.661Z,99.90
2018-12-16T04:39:17.239Z,99.90
2018-12-16T04:41:45.686Z,99.90
2018-12-16T04:44:14.195Z,99.90
2018-12-16T04:46:42.632Z,99.90
2018-12-16T04:49:11.078Z,99.90
2018-12-16T04:51:39.804Z,99.90
2018-12-16T04:54:08.288Z,99.90
2018-12-16T04:56:36.728Z,99.90
2018-12-16T04:59:05.179Z,99.90
2018-12-16T05:01:33.677Z,99.90
2018-12-16T05:04:02.144Z,99.90
2018-12-16T05:06:30.686Z,99.90
2018-12-16T05:08:59.211Z,99.90
2018-12-16T05:11:27.668Z,99.90
2018-12-16T05:13:56.707Z,99.90
2018-12-16T05:16:25.160Z,99.90
2018-12-16T05:18:53.627Z,99.90
2018-12-16T05:21:22.122Z,99.90
2018-12-16T05:23:50.562Z,99.90
2018-12-16T05:26:19.751Z,99.90
2018-12-16T05:28:48.236Z,99.90
2018-12-16T05:31:16.714Z,99.90
2018-12-16T05:33:45.208Z,99.90
2018-12-16T05:36:13.869Z,99.90
2018-12-16T05:38:42.386Z,99.90
2018-12-16T05:41:10.904Z,99.90
2018-12-16T05:43:39.388Z,99.90
2018-12-16T05:46:07.885Z,99.90
2018-12-16T05:48:36.342Z,99.90
2018-12-16T05:51:05.350Z,99.90
2018-12-16T05:53:34.982Z,99.90
2018-12-16T05:56:03.425Z,99.90
2018-12-16T05:58:31.887Z,99.90
2018-12-16T06:01:00.382Z,99.90
2018-12-16T06:03:29.039Z,99.90
2018-12-16T06:05:57.569Z,99.90
2018-12-16T06:08:26.099Z,99.90
2018-12-16T06:10:54.600Z,99.90
2018-12-16T06:13:23.071Z,99.90
2018-12-16T06:15:51.538Z,99.90
2018-12-16T06:18:20.041Z,99.90
2018-12-16T06:20:48.559Z,99.90
2018-12-16T06:23:17.187Z,99.90
2018-12-16T06:25:45.790Z,99.90
2018-12-16T06:28:14.259Z,99.90
2018-12-16T06:30:43.189Z,99.90
2018-12-16T06:33:11.757Z,99.90
2018-12-16T06:35:40.236Z,99.90
2018-12-16T06:38:08.712Z,99.90
2018-12-16T06:40:37.145Z,99.90
2018-12-16T06:43:05.586Z,99.90
2018-12-16T06:45:34.066Z,99.90
2018-12-16T06:48:02.507Z,99.90
2018-12-16T06:50:31.070Z,99.90
2018-12-16T06:52:59.528Z,99.90
2018-12-16T06:55:28.065Z,99.90
2018-12-16T06:57:56.512Z,99.90
2018-12-16T07:00:25.108Z,99.90
2018-12-16T07:02:54.364Z,99.90
2018-12-16T07:05:22.899Z,99.90
2018-12-16T07:07:51.404Z,99.90
2018-12-16T07:10:20.088Z,99.90
2018-12-16T07:12:48.571Z,99.90
2018-12-16T07:15:17.156Z,99.90
2018-12-16T07:17:45.655Z,99.90
2018-12-16T07:20:14.270Z,99.90
2018-12-16T07:22:42.786Z,99.90
2018-12-16T07:25:11.251Z,99.90
2018-12-16T07:27:39.850Z,99.90
2018-12-16T07:30:08.998Z,99.90
2018-12-16T07:32:37.464Z,99.90
2018-12-16T07:35:06.057Z,99.90
2018-12-16T07:37:34.544Z,99.90
2018-12-16T07:40:03.244Z,99.90
2018-12-16T07:42:31.812Z,99.90
2018-12-16T07:45:00.281Z,99.90
2018-12-16T07:47:29.136Z,99.90
2018-12-16T07:49:57.794Z,99.90
2018-12-16T07:52:26.245Z,99.90
2018-12-16T07:54:54.761Z,99.90
2018-12-16T07:57:23.311Z,99.90
2018-12-16T07:59:52.001Z,99.90
2018-12-16T08:02:20.555Z,99.90
2018-12-16T08:04:49.242Z,99.90
2018-12-16T08:07:17.803Z,99.90
2018-12-16T08:09:46.288Z,99.90
2018-12-16T08:12:14.885Z,99.90
2018-12-16T08:14:43.573Z,99.90
2018-12-16T08:17:12.196Z,99.90
2018-12-16T08:19:40.834Z,99.90
2018-12-16T08:22:09.358Z,99.90
2018-12-16T08:24:37.845Z,99.90
2018-12-16T08:27:06.428Z,99.90
2018-12-16T08:29:35.238Z,99.90
2018-12-16T08:32:03.859Z,99.90
2018-12-16T08:34:32.497Z,99.90
2018-12-16T08:37:00.996Z,99.90
2018-12-16T08:39:29.526Z,99.90
2018-12-16T08:41:58.007Z,99.90
2018-12-16T08:44:26.531Z,99.90
2018-12-16T08:46:55.020Z,99.90
2018-12-16T08:49:23.674Z,99.90
2018-12-16T08:51:52.303Z,99.90
2018-12-16T08:54:20.878Z,99.90
2018-12-16T08:56:49.361Z,99.90
2018-12-16T08:59:17.921Z,99.90
2018-12-16T09:01:46.335Z,99.90
2018-12-16T09:04:15.200Z,99.90
2018-12-16T09:06:43.663Z,99.90
2018-12-16T09:09:12.616Z,99.90
2018-12-16T09:11:41.390Z,99.90
2018-12-16T09:14:09.872Z,99.90
2018-12-16T09:16:38.299Z,99.90
2018-12-16T09:19:07.034Z,99.90
2018-12-16T09:21:35.479Z,99.90
2018-12-16T09:24:04.085Z,99.90
2018-12-16T09:26:32.612Z,99.90
2018-12-16T09:29:01.110Z,99.90
2018-12-16T09:31:29.572Z,99.90
2018-12-16T09:33:58.132Z,99.90
2018-12-16T09:36:26.555Z,99.90
2018-12-16T09:38:55.036Z,99.90
2018-12-16T09:41:23.592Z,99.90
2018-12-16T09:43:52.167Z,99.90
2018-12-16T09:46:20.651Z,99.90
2018-12-16T09:48:49.132Z,99.90
2018-12-16T09:51:18.218Z,99.90
2018-12-16T09:53:46.757Z,99.90
2018-12-16T09:56:15.221Z,99.90
2018-12-16T09:58:43.773Z,99.90
2018-12-16T10:01:12.233Z,99.90
2018-12-16T10:03:40.712Z,99.90
2018-12-16T10:06:09.219Z,99.90
2018-12-16T10:08:37.936Z,99.90
2018-12-16T10:11:06.630Z,99.90
2018-12-16T10:13:35.240Z,99.90
2018-12-16T10:16:03.902Z,99.90
2018-12-16T10:18:32.418Z,99.90
2018-12-16T10:21:00.915Z,99.90
2018-12-16T10:23:29.526Z,99.90
2018-12-16T10:25:58.342Z,99.90
2018-12-16T10:28:26.927Z,99.90
2018-12-16T10:30:55.487Z,99.90
2018-12-16T10:33:24.046Z,99.90
2018-12-16T10:35:52.515Z,99.90
2018-12-16T10:38:21.071Z,99.90
2018-12-16T10:40:49.770Z,99.90
2018-12-16T10:43:18.240Z,99.90
2018-12-16T10:45:46.814Z,99.90
2018-12-16T10:48:15.446Z,99.90
2018-12-16T10:50:43.957Z,99.90
2018-12-16T10:53:12.493Z,99.90
2018-12-16T10:55:41.302Z,99.90
2018-12-16T10:58:09.977Z,99.90
2018-12-16T11:00:43.952Z,99.90
2018-12-16T11:03:12.780Z,99.90
2018-12-16T11:05:41.653Z,99.90
2018-12-16T11:08:10.316Z,99.90
2018-12-16T11:10:39.326Z,99.90
2018-12-16T11:13:08.350Z,99.90
2018-12-16T11:15:36.886Z,99.90
2018-12-16T11:18:05.423Z,99.90
2018-12-16T11:20:34.004Z,99.90
2018-12-16T11:23:02.693Z,99.90
2018-12-16T11:25:32.107Z,99.90
2018-12-16T11:28:00.535Z,99.90
2018-12-16T11:30:29.435Z,99.90
2018-12-16T11:32:57.909Z,99.90
2018-12-16T11:35:26.557Z,99.90
2018-12-16T11:37:55.189Z,99.90
2018-12-16T11:40:23.774Z,99.90
2018-12-16T11:42:52.352Z,99.90
2018-12-16T11:45:20.936Z,99.90
2018-12-16T11:47:49.728Z,99.90
2018-12-16T11:50:19.090Z,99.90
2018-12-16T11:52:47.578Z,99.90
2018-12-16T11:55:16.329Z,99.90
2018-12-16T11:57:45.460Z,99.90
2018-12-16T12:00:14.140Z,99.90
2018-12-16T12:02:42.595Z,99.90
2018-12-16T12:05:11.394Z,99.90
2018-12-16T12:07:40.350Z,99.90
2018-12-16T12:10:09.134Z,99.90
2018-12-16T12:12:37.668Z,99.90
2018-12-16T12:15:06.469Z,99.90
2018-12-16T12:17:35.043Z,99.90
2018-12-16T12:20:04.176Z,99.90
2018-12-16T12:22:32.684Z,99.90
2018-12-16T12:25:01.195Z,99.90
2018-12-16T12:27:29.706Z,99.90
2018-12-16T12:29:58.300Z,99.90
2018-12-16T12:32:26.858Z,99.90
2018-12-16T12:34:55.827Z,99.90
2018-12-16T12:37:24.314Z,99.90
2018-12-16T12:39:52.892Z,99.90
2018-12-16T12:42:21.440Z,99.90
2018-12-16T12:44:49.951Z,99.90
2018-12-16T12:47:18.556Z,99.90
2018-12-16T12:49:47.040Z,99.90
2018-12-16T12:52:15.538Z,99.90
2018-12-16T12:54:44.269Z,99.90
2018-12-16T12:57:12.817Z,99.90
2018-12-16T12:59:41.409Z,99.90
2018-12-16T13:02:09.948Z,99.90
2018-12-16T13:04:38.471Z,99.90
2018-12-16T13:07:06.977Z,99.90
2018-12-16T13:09:35.446Z,99.90
2018-12-16T13:12:03.910Z,99.90
2018-12-16T13:14:32.416Z,99.90
2018-12-16T13:17:00.980Z,99.90
2018-12-16T13:19:30.130Z,99.90
2018-12-16T13:21:58.628Z,99.90
2018-12-16T13:24:27.114Z,99.90
2018-12-16T13:26:55.909Z,99.90
2018-12-16T13:29:24.548Z,99.90
2018-12-16T13:31:53.038Z,99.90
2018-12-16T13:34:21.806Z,99.90
2018-12-16T13:36:50.247Z,99.90
2018-12-16T13:39:18.799Z,99.90
2018-12-16T13:41:47.419Z,99.90
2018-12-16T13:44:15.940Z,99.90
2018-12-16T13:46:44.502Z,99.90
2018-12-16T13:49:12.965Z,99.90
2018-12-16T13:51:41.487Z,99.90
2018-12-16T13:54:10.709Z,99.90
2018-12-16T13:56:39.183Z,99.90
2018-12-16T13:59:07.640Z,99.90
2018-12-16T14:01:36.165Z,99.90
2018-12-16T14:04:04.714Z,99.90
2018-12-16T14:06:33.233Z,99.90
2018-12-16T14:09:02.169Z,99.90
2018-12-16T14:11:30.880Z,99.90
2018-12-16T14:13:59.489Z,99.90
2018-12-16T14:16:28.034Z,99.90
2018-12-16T14:18:56.561Z,99.90
2018-12-16T14:21:25.114Z,99.90
2018-12-16T14:23:53.590Z,99.90
2018-12-16T14:26:22.213Z,99.90
2018-12-16T14:28:50.724Z,99.90
2018-12-16T14:31:19.220Z,99.90
2018-12-16T14:33:48.559Z,99.90
2018-12-16T14:36:17.595Z,99.90
2018-12-16T14:38:47.287Z,99.90
2018-12-16T14:41:15.759Z,99.90
2018-12-16T14:43:44.367Z,99.90
2018-12-16T14:46:12.906Z,99.90
2018-12-16T14:48:41.444Z,99.90
2018-12-16T14:51:09.938Z,99.90
2018-12-16T14:53:38.544Z,99.90
2018-12-16T14:56:07.065Z,99.90
2018-12-16T14:58:35.718Z,99.90
2018-12-16T15:01:04.292Z,99.90
2018-12-16T15:03:32.972Z,99.90
2018-12-16T15:06:01.606Z,99.90
2018-12-16T15:08:30.124Z,99.90
2018-12-16T15:10:58.901Z,99.90
2018-12-16T15:13:27.395Z,99.90
2018-12-16T15:15:55.902Z,99.90
2018-12-16T15:18:24.334Z,99.90
2018-12-16T15:20:52.890Z,99.90
2018-12-16T15:23:22.045Z,99.90
2018-12-16T15:25:50.538Z,99.90
2018-12-16T15:28:19.188Z,99.90
2018-12-16T15:30:47.839Z,99.90
2018-12-16T15:33:16.301Z,99.90
2018-12-16T15:35:45.788Z,99.90
2018-12-16T15:38:14.291Z,99.90
2018-12-16T15:40:42.814Z,99.90
2018-12-16T15:43:11.281Z,99.90
2018-12-16T15:45:39.901Z,99.90
2018-12-16T15:48:08.367Z,99.90
2018-12-16T15:50:36.874Z,99.90
2018-12-16T15:53:05.563Z,99.90
2018-12-16T15:55:34.110Z,99.90
2018-12-16T15:58:02.646Z,99.90
2018-12-16T16:00:31.487Z,99.90
2018-12-16T16:03:00.017Z,99.90
2018-12-16T16:05:28.460Z,99.90
2018-12-16T16:07:57.240Z,99.90
2018-12-16T16:10:25.859Z,99.90
2018-12-16T16:12:55.045Z,99.90
2018-12-16T16:15:23.937Z,99.90
2018-12-16T16:17:53.416Z,99.90
2018-12-16T16:20:21.988Z,99.90
2018-12-16T16:22:51.281Z,99.90
2018-12-16T16:25:19.732Z,99.90
2018-12-16T16:27:49.254Z,99.90
2018-12-16T16:30:18.414Z,99.90
2018-12-16T16:32:46.935Z,99.90
2018-12-16T16:35:15.446Z,99.90
2018-12-16T16:37:44.206Z,99.90
2018-12-16T16:40:12.838Z,99.90
2018-12-16T16:42:41.343Z,99.90
2018-12-16T16:45:10.036Z,99.90
2018-12-16T16:47:38.656Z,99.90
2018-12-16T16:50:07.479Z,99.90
2018-12-16T16:52:36.148Z,99.90
2018-12-16T16:55:04.987Z,99.90
2018-12-16T16:57:33.526Z,99.90
2018-12-16T17:00:02.169Z,99.90
2018-12-16T17:02:30.636Z,99.90
2018-12-16T17:04:59.118Z,99.90
2018-12-16T17:07:27.634Z,99.90
2018-12-16T17:09:56.258Z,99.90
2018-12-16T17:12:24.696Z,99.90
2018-12-16T17:14:53.201Z,99.90
2018-12-16T17:17:22.381Z,99.90
2018-12-16T17:19:51.446Z,99.90
2018-12-16T17:22:19.872Z,99.90
2018-12-16T17:24:48.335Z,99.90
2018-12-16T17:27:16.845Z,99.90
2018-12-16T17:29:45.398Z,99.90
2018-12-16T17:32:13.840Z,99.90
2018-12-16T17:34:42.298Z,99.90
2018-12-16T17:37:10.890Z,99.90
2018-12-16T17:39:40.520Z,99.90
2018-12-16T17:42:09.031Z,99.90
2018-12-16T17:44:37.714Z,99.90
2018-12-16T17:47:06.337Z,99.90
2018-12-16T17:49:34.873Z,99.90
2018-12-16T17:52:03.428Z,99.90
2018-12-16T17:54:31.900Z,99.90
2018-12-16T17:57:00.695Z,99.90
2018-12-16T17:59:29.206Z,99.90
2018-12-16T18:01:58.125Z,99.90
2018-12-16T18:04:26.635Z,99.90
2018-12-16T18:06:55.162Z,99.90
2018-12-16T18:09:23.693Z,99.90
2018-12-16T18:11:52.286Z,99.90
2018-12-16T18:14:20.786Z,99.90
2018-12-16T18:16:49.336Z,99.90
2018-12-16T18:19:18.259Z,99.90
2018-12-16T18:21:46.755Z,99.90
2018-12-16T18:24:15.194Z,99.90
2018-12-16T18:26:44.341Z,99.90
2018-12-16T18:29:13.063Z,99.90
2018-12-16T18:31:41.529Z,99.90
2018-12-16T18:34:10.003Z,99.90
2018-12-16T18:36:39.263Z,99.90
2018-12-16T18:39:09.808Z,99.90
2018-12-16T18:41:39.298Z,99.90
2018-12-16T18:44:08.610Z,99.90
2018-12-16T18:46:37.122Z,99.90
2018-12-16T18:49:05.857Z,99.90
2018-12-16T18:51:34.844Z,99.90
2018-12-16T18:54:03.346Z,99.90
2018-12-16T18:56:32.131Z,99.90
2018-12-16T18:59:00.674Z,99.90
2018-12-16T19:01:29.162Z,99.90
2018-12-16T19:03:58.290Z,99.90
2018-12-16T19:06:26.835Z,99.90
2018-12-16T19:08:55.450Z,99.90
2018-12-16T19:11:23.992Z,99.90
2018-12-16T19:13:52.574Z,99.90
2018-12-16T19:16:21.194Z,99.90
2018-12-16T19:18:50.356Z,99.90
2018-12-16T19:21:18.872Z,99.90
2018-12-16T19:23:47.368Z,99.90
2018-12-16T19:26:16.063Z,99.90
2018-12-16T19:28:45.180Z,99.90
2018-12-16T19:31:13.731Z,99.90
2018-12-16T19:33:42.177Z,99.90
2018-12-16T19:36:10.712Z,99.90
2018-12-16T19:38:39.181Z,99.90
2018-12-16T19:41:07.715Z,99.90
2018-12-16T19:43:36.361Z,99.90
2018-12-16T19:46:05.214Z,99.90
2018-12-16T19:48:34.488Z,99.90
2018-12-16T19:51:03.304Z,99.90
2018-12-16T19:53:31.765Z,99.90
2018-12-16T19:56:00.238Z,99.90
2018-12-16T19:58:29.175Z,99.90
2018-12-16T20:00:57.633Z,99.90
2018-12-16T20:03:26.160Z,99.90
2018-12-16T20:05:59.922Z,99.90
2018-12-16T20:08:28.471Z,99.90
2018-12-16T20:10:57.490Z,99.90
2018-12-16T20:13:26.002Z,99.90
2018-12-16T20:16:01.370Z,99.90
2018-12-16T20:18:25.494Z,99.90
2018-12-16T20:20:54.560Z,99.90
2018-12-16T20:23:23.105Z,99.90
2018-12-16T20:25:52.068Z,99.90
2018-12-16T20:28:21.195Z,99.90
2018-12-16T20:30:49.724Z,99.90
2018-12-16T20:33:18.597Z,99.90
2018-12-16T20:35:47.076Z,99.90
2018-12-16T20:38:15.843Z,99.90
2018-12-16T20:40:45.150Z,99.90
2018-12-16T20:43:14.821Z,99.90
2018-12-16T20:45:43.515Z,99.90
2018-12-16T20:48:12.108Z,99.90
2018-12-16T20:50:40.570Z,99.90
2018-12-16T20:53:09.073Z,99.90
2018-12-16T20:55:37.694Z,99.90
2018-12-16T20:58:06.124Z,99.90
2018-12-16T21:00:35.379Z,99.90
2018-12-16T21:03:03.896Z,99.90
2018-12-16T21:05:32.999Z,99.90
2018-12-16T21:08:01.655Z,99.90
2018-12-16T21:10:30.389Z,99.90
2018-12-16T21:13:04.044Z,99.90
2018-12-16T21:15:37.795Z,99.90
2018-12-16T21:18:12.084Z,99.90
2018-12-16T21:20:40.622Z,99.90
2018-12-16T21:23:09.130Z,99.90
2018-12-16T21:25:37.647Z,99.90
2018-12-16T21:28:06.759Z,99.90
2018-12-16T21:30:35.243Z,99.90
2018-12-16T21:33:03.755Z,99.90
2018-12-16T21:35:33.216Z,99.90
2018-12-16T21:38:01.695Z,99.90
2018-12-16T21:40:30.342Z,99.90
2018-12-16T21:42:58.811Z,99.90
2018-12-16T21:45:27.271Z,99.90
2018-12-16T21:47:55.725Z,99.90
2018-12-16T21:50:24.162Z,99.90
2018-12-16T21:52:52.665Z,99.90
2018-12-16T21:55:21.128Z,99.90
2018-12-16T21:57:49.618Z,99.90
2018-12-16T22:00:18.122Z,99.90
2018-12-16T22:02:46.594Z,99.90
2018-12-16T22:05:15.968Z,99.90
2018-12-16T22:07:45.456Z,99.90
2018-12-16T22:10:14.034Z,99.90
2018-12-16T22:12:43.475Z,99.90
2018-12-16T22:15:11.934Z,99.90
2018-12-16T22:17:40.602Z,99.90
2018-12-16T22:20:09.154Z,99.90
2018-12-16T22:22:37.646Z,99.90
2018-12-16T22:25:06.197Z,99.90
2018-12-16T22:27:40.176Z,99.90
2018-12-16T22:30:05.913Z,99.90
2018-12-16T22:32:34.383Z,99.90
2018-12-16T22:35:03.540Z,99.90
2018-12-16T22:37:32.173Z,99.90
2018-12-16T22:40:00.647Z,99.90
2018-12-16T22:42:29.254Z,99.90
2018-12-16T22:44:57.708Z,99.90
2018-12-16T22:47:27.358Z,99.90
2018-12-16T22:49:55.956Z,99.90
2018-12-16T22:52:24.380Z,99.90
2018-12-16T22:54:52.842Z,99.90
2018-12-16T22:57:21.304Z,99.90
2018-12-16T22:59:50.466Z,99.90
2018-12-16T23:02:18.905Z,99.90
2018-12-16T23:04:47.457Z,99.90
2018-12-16T23:07:15.992Z,99.90
2018-12-16T23:09:44.477Z,99.90
2018-12-16T23:12:13.103Z,99.90
2018-12-16T23:14:41.855Z,99.90
2018-12-16T23:17:10.512Z,99.90
2018-12-16T23:19:39.564Z,99.90
2018-12-16T23:22:08.044Z,99.90
2018-12-16T23:24:36.946Z,99.90
2018-12-16T23:27:05.438Z,99.90
2018-12-16T23:29:33.928Z,99.90
2018-12-16T23:32:02.420Z,99.90
2018-12-16T23:34:30.937Z,99.90
2018-12-16T23:36:59.491Z,99.90
2018-12-16T23:39:27.952Z,99.90
2018-12-16T23:41:56.475Z,99.90
2018-12-16T23:44:31.703Z,99.90
2018-12-16T23:47:00.211Z,99.90
2018-12-16T23:49:28.654Z,99.90
2018-12-16T23:51:57.132Z,99.90
2018-12-16T23:54:25.591Z,99.90
2018-12-16T23:56:54.107Z,99.90
2018-12-16T23:59:22.644Z,99.90
